Time;durP1;ratioP1;P1;durP2;ratioP2;P2;SDS_P1;SDS_P2;PMS_P1;PMS_P2;Temp;Humidity;BMP_temperature;BMP_pressure;BME280_temperature;BME280_humidity;BME280_pressure;Samples;Min_cycle;Max_cycle;Signal;HPM_P1;HPM_P2
2023/04/08 00:02:07;;;;;;;9.53;5.53;;;;;;;-145.69;100.00;52410.72;5076573;28;20289;-82
2023/04/08 00:04:35;;;;;;;10.73;5.60;;;;;;;-145.69;100.00;52396.84;5077627;28;20198;-82
2023/04/08 00:07:09;;;;;;;11.30;5.90;;;;;;;-145.69;100.00;52408.75;5077341;28;20187;-82
2023/04/08 00:09:35;;;;;;;12.33;6.43;;;;;;;-145.69;100.00;52373.09;5073857;28;20195;-81
2023/04/08 00:12:05;;;;;;;9.27;5.97;;;;;;;-145.69;100.00;52383.00;5073480;28;20239;-82
2023/04/08 00:14:34;;;;;;;11.90;7.13;;;;;;;-145.69;100.00;52420.63;5072263;28;20445;-82
2023/04/08 00:17:02;;;;;;;11.83;6.83;;;;;;;-145.69;100.00;52426.56;5074588;28;20205;-82
2023/04/08 00:19:29;;;;;;;13.00;6.77;;;;;;;-145.69;100.00;52392.91;5074109;28;20661;-82
2023/04/08 00:22:00;;;;;;;10.90;6.60;;;;;;;-145.69;100.00;52406.75;5073693;28;20211;-82
2023/04/08 00:24:35;;;;;;;13.03;6.03;;;;;;;-145.69;100.00;52400.81;5074963;28;20198;-82
2023/04/08 00:27:03;;;;;;;10.87;5.90;;;;;;;-145.69;100.00;52373.09;5074013;28;20263;-82
2023/04/08 00:29:29;;;;;;;10.17;5.30;;;;;;;-145.69;100.00;52396.84;5072729;28;20202;-82
2023/04/08 00:31:56;;;;;;;10.27;6.00;;;;;;;-145.69;100.00;52438.44;5073359;28;20198;-81
2023/04/08 00:34:25;;;;;;;9.73;6.03;;;;;;;-145.69;100.00;52408.75;5073388;28;20226;-82
2023/04/08 00:36:55;;;;;;;10.47;5.73;;;;;;;-145.69;100.00;52400.81;5073503;28;20264;-81
2023/04/08 00:39:26;;;;;;;10.60;5.83;;;;;;;-145.69;100.00;52392.91;5072863;28;20199;-82
2023/04/08 00:41:55;;;;;;;16.17;6.70;;;;;;;-145.69;100.00;52400.81;5072584;28;20206;-81
2023/04/08 00:44:23;;;;;;;11.67;6.03;;;;;;;-145.69;100.00;52400.81;5072296;28;20313;-81
2023/04/08 00:46:52;;;;;;;11.93;6.47;;;;;;;-145.69;100.00;52412.69;5072590;28;20191;-83
2023/04/08 00:49:22;;;;;;;10.30;5.70;;;;;;;-145.69;100.00;52416.66;5072805;28;20198;-81
2023/04/08 00:51:48;;;;;;;10.63;6.17;;;;;;;-145.69;100.00;52432.50;5072785;28;20195;-81
2023/04/08 00:54:18;;;;;;;13.17;6.80;;;;;;;-145.69;100.00;52412.69;5072505;28;20738;-81
2023/04/08 00:56:50;;;;;;;10.70;6.33;;;;;;;-145.69;100.00;52440.44;5072675;28;20209;-82
2023/04/08 00:59:18;;;;;;;11.23;6.40;;;;;;;-145.69;100.00;52426.56;5072902;28;20566;-82
2023/04/08 01:01:53;;;;;;;12.67;6.53;;;;;;;-145.69;100.00;52408.75;5073207;28;20209;-81
2023/04/08 01:04:28;;;;;;;12.10;6.33;;;;;;;-145.69;100.00;52416.66;5076842;28;20206;-81
2023/04/08 01:07:01;;;;;;;13.50;7.30;;;;;;;-145.69;100.00;52424.59;5076432;28;20202;-81
2023/04/08 01:09:35;;;;;;;15.00;7.43;;;;;;;-145.69;100.00;52404.78;5077096;28;20534;-81
2023/04/08 01:12:07;;;;;;;12.13;7.40;;;;;;;-145.69;100.00;52377.06;5076929;28;20206;-82
2023/04/08 01:14:38;;;;;;;14.03;8.10;;;;;;;-145.69;100.00;52408.75;5077188;28;20190;-82
2023/04/08 01:17:10;;;;;;;14.33;7.57;;;;;;;-145.69;100.00;52386.97;5078053;28;20195;-81
2023/04/08 01:19:40;;;;;;;16.43;7.67;;;;;;;-145.69;100.00;52414.69;5080430;28;20604;-82
2023/04/08 01:22:17;;;;;;;12.30;7.20;;;;;;;-145.69;100.00;52404.78;5082328;28;20228;-82
2023/04/08 01:24:47;;;;;;;16.57;8.07;;;;;;;-145.69;100.00;52369.13;5082020;28;20285;-83
2023/04/08 01:27:19;;;;;;;13.10;7.83;;;;;;;-145.69;100.00;52408.75;5082627;28;20199;-83
2023/04/08 01:29:48;;;;;;;14.47;8.23;;;;;;;-145.69;100.00;52400.81;5082778;28;20653;-83
2023/04/08 01:32:16;;;;;;;15.20;8.73;;;;;;;-145.69;100.00;52418.63;5082793;28;20552;-82
2023/04/08 01:34:49;;;;;;;19.63;9.50;;;;;;;-145.69;100.00;52426.56;5082127;28;20266;-83
2023/04/08 01:37:16;;;;;;;19.20;9.50;;;;;;;-145.69;100.00;52404.78;5081154;28;20206;-83
2023/04/08 01:39:43;;;;;;;23.03;9.57;;;;;;;-145.69;100.00;52412.69;5079781;28;20199;-82
2023/04/08 01:42:11;;;;;;;19.87;9.87;;;;;;;-145.69;100.00;52428.53;5079360;28;20194;-82
2023/04/08 01:44:41;;;;;;;23.20;11.37;;;;;;;-145.69;100.00;52420.63;5078929;28;20291;-83
2023/04/08 01:47:08;;;;;;;21.10;10.23;;;;;;;-145.69;100.00;52424.59;5079920;28;20206;-82
2023/04/08 01:49:36;;;;;;;20.37;10.57;;;;;;;-145.69;100.00;52430.53;5060561;28;20655;-81
2023/04/08 01:52:04;;;;;;;19.10;10.00;;;;;;;-145.69;100.00;52408.75;5070248;28;20290;-82
2023/04/08 01:54:31;;;;;;;16.80;9.87;;;;;;;-145.69;100.00;52404.78;5075844;28;20233;-81
2023/04/08 01:57:00;;;;;;;18.00;9.73;;;;;;;-145.69;100.00;52408.75;5075682;28;20205;-81
2023/04/08 01:59:31;;;;;;;21.43;10.17;;;;;;;-145.69;100.00;52430.53;5075784;28;20225;-79
2023/04/08 02:02:02;;;;;;;19.67;10.03;;;;;;;-145.69;100.00;52412.69;5075962;28;20203;-81
2023/04/08 02:04:28;;;;;;;18.87;10.17;;;;;;;-145.69;100.00;52432.50;5075656;28;20203;-81
2023/04/08 02:06:58;;;;;;;21.80;10.63;;;;;;;-145.69;100.00;52379.03;5075368;28;20295;-81
2023/04/08 02:09:25;;;;;;;19.00;10.80;;;;;;;-145.69;100.00;52384.97;5075611;28;20285;-81
2023/04/08 02:11:51;;;;;;;17.33;9.60;;;;;;;-145.69;100.00;52410.72;5075098;28;20198;-80
2023/04/08 02:14:18;;;;;;;19.33;9.77;;;;;;;-145.69;100.00;52422.59;5074393;28;20772;-81
2023/04/08 02:16:50;;;;;;;20.37;11.13;;;;;;;-145.69;100.00;52436.47;5075384;28;20269;-81
2023/04/08 02:19:25;;;;;;;19.57;10.07;;;;;;;-145.69;100.00;52424.59;5075317;28;20581;-81
2023/04/08 02:21:57;;;;;;;17.87;10.30;;;;;;;-145.69;100.00;52434.47;5075122;28;20198;-81
2023/04/08 02:24:26;;;;;;;23.53;12.13;;;;;;;-145.69;100.00;52406.75;5075552;28;20245;-80
2023/04/08 02:26:54;;;;;;;24.73;12.80;;;;;;;-145.69;100.00;52426.56;5075394;28;20195;-81
2023/04/08 02:29:21;;;;;;;25.03;12.07;;;;;;;-145.69;100.00;52418.63;5075213;28;20206;-81
2023/04/08 02:31:50;;;;;;;33.30;14.07;;;;;;;-145.69;100.00;52464.19;5075392;28;20198;-81
2023/04/08 02:34:20;;;;;;;32.05;16.55;;;;;;;-145.69;100.00;52412.69;5074074;28;20487;-82
2023/04/08 02:36:47;;;;;;;26.23;14.23;;;;;;;-145.69;100.00;52428.53;5075398;28;20202;-81
2023/04/08 02:39:15;;;;;;;24.23;12.87;;;;;;;-145.69;100.00;52432.50;5075243;28;20659;-81
2023/04/08 02:41:42;;;;;;;26.00;12.93;;;;;;;-145.69;100.00;52394.88;5075694;28;20206;-82
2023/04/08 02:44:09;;;;;;;24.50;12.17;;;;;;;-145.69;100.00;52367.16;5074938;28;20241;-82
2023/04/08 02:46:36;;;;;;;22.73;11.90;;;;;;;-145.69;100.00;52406.75;5075723;28;20205;-82
2023/04/08 02:49:07;;;;;;;29.03;13.47;;;;;;;-145.69;100.00;52434.47;5076486;28;20205;-82
2023/04/08 02:51:35;;;;;;;25.03;12.90;;;;;;;-145.69;100.00;52414.69;5078473;28;20203;-82
2023/04/08 02:54:04;;;;;;;24.97;12.60;;;;;;;-145.69;100.00;52428.53;5077096;28;20234;-82
2023/04/08 02:56:30;;;;;;;25.73;13.33;;;;;;;-145.69;100.00;52432.50;5079449;28;20199;-81
2023/04/08 02:58:57;;;;;;;25.97;13.43;;;;;;;-145.69;100.00;52400.81;5078833;28;20203;-82
2023/04/08 03:01:24;;;;;;;23.77;11.80;;;;;;;-145.69;100.00;52432.50;5075649;28;20226;-81
2023/04/08 03:03:53;;;;;;;30.57;13.47;;;;;;;-145.69;100.00;52432.50;5076586;28;20210;-82
2023/04/08 03:06:20;;;;;;;24.10;12.37;;;;;;;-145.69;100.00;52432.50;5076075;28;20206;-82
2023/04/08 03:08:48;;;;;;;23.97;12.90;;;;;;;-145.69;100.00;52428.53;5079413;28;20241;-82
2023/04/08 03:11:16;;;;;;;29.40;14.83;;;;;;;-145.69;100.00;52408.75;5077554;28;20198;-83
2023/04/08 03:13:46;;;;;;;32.37;15.63;;;;;;;-145.69;100.00;52438.44;5079425;28;20226;-82
2023/04/08 03:16:21;;;;;;;28.03;13.10;;;;;;;-145.69;100.00;52406.75;5079370;28;20214;-82
2023/04/08 03:18:50;;;;;;;34.27;14.30;;;;;;;-145.69;100.00;52418.63;5078691;28;20600;-82
2023/04/08 03:21:17;;;;;;;30.67;15.30;;;;;;;-145.69;100.00;52408.75;5080921;28;20199;-83
2023/04/08 03:23:44;;;;;;;36.63;16.60;;;;;;;-145.69;100.00;52424.59;5077710;28;20199;-82
2023/04/08 03:26:12;;;;;;;36.20;16.87;;;;;;;-145.69;100.00;52408.75;5075164;28;20198;-82
2023/04/08 03:28:39;;;;;;;33.03;16.33;;;;;;;-145.69;100.00;52428.53;5078510;28;20199;-82
2023/04/08 03:31:06;;;;;;;32.60;16.67;;;;;;;-145.69;100.00;52402.78;5080029;28;20206;-82
2023/04/08 03:33:32;;;;;;;32.17;14.77;;;;;;;-145.69;100.00;52392.91;5079164;28;20222;-82
2023/04/08 03:35:59;;;;;;;31.83;15.07;;;;;;;-145.69;100.00;52424.59;5077077;28;20203;-82
2023/04/08 03:38:25;;;;;;;31.10;15.40;;;;;;;-145.69;100.00;52418.63;5075360;28;20298;-81
2023/04/08 03:40:52;;;;;;;32.13;15.70;;;;;;;-145.69;100.00;52400.81;5074005;28;20199;-81
2023/04/08 03:43:20;;;;;;;31.70;15.63;;;;;;;-145.69;100.00;52402.78;5074218;28;20242;-81
2023/04/08 03:45:47;;;;;;;29.73;14.33;;;;;;;-145.69;100.00;52412.69;5073355;28;20227;-80
2023/04/08 03:48:13;;;;;;;34.00;16.97;;;;;;;-145.69;100.00;52424.59;5073027;28;20206;-81
2023/04/08 03:50:40;;;;;;;33.17;16.60;;;;;;;-145.69;100.00;52420.63;5067949;28;20195;-81
2023/04/08 03:53:10;;;;;;;33.87;15.70;;;;;;;-145.69;100.00;52408.75;5073250;28;20646;-81
2023/04/08 03:55:36;;;;;;;35.10;16.70;;;;;;;-145.69;100.00;52418.63;5075038;28;20206;-81
2023/04/08 03:58:03;;;;;;;30.77;14.77;;;;;;;-145.69;100.00;52434.47;5075197;28;20210;-81
2023/04/08 04:00:31;;;;;;;26.47;13.60;;;;;;;-145.69;100.00;52430.53;5074459;28;20672;-81
2023/04/08 04:02:57;;;;;;;30.93;15.30;;;;;;;-145.69;100.00;52406.75;5075535;28;20233;-81
2023/04/08 04:05:26;;;;;;;31.43;14.60;;;;;;;-145.69;100.00;52470.13;5076068;28;20203;-82
2023/04/08 04:07:53;;;;;;;29.90;13.57;;;;;;;-145.69;100.00;52428.53;5077820;28;20198;-82
2023/04/08 04:10:22;;;;;;;26.43;14.33;;;;;;;-145.69;100.00;52416.66;5077497;28;20195;-82
2023/04/08 04:12:50;;;;;;;30.23;15.47;;;;;;;-145.69;100.00;52432.50;5073633;28;20199;-80
2023/04/08 04:15:16;;;;;;;38.13;16.47;;;;;;;-145.69;100.00;52410.72;5072969;28;20746;-81
2023/04/08 04:17:44;;;;;;;36.50;14.43;;;;;;;-145.69;100.00;52406.75;5073131;28;20281;-81
2023/04/08 04:20:11;;;;;;;33.87;14.97;;;;;;;-145.69;100.00;52458.25;5074225;28;20680;-81
2023/04/08 04:22:38;;;;;;;35.57;17.07;;;;;;;-145.69;100.00;52440.44;5075427;28;20203;-82
2023/04/08 04:25:11;;;;;;;32.90;15.40;;;;;;;-145.69;100.00;52426.56;5076408;28;20203;-82
2023/04/08 04:27:37;;;;;;;30.27;14.20;;;;;;;-145.69;100.00;52404.78;5075736;28;20195;-82
2023/04/08 04:30:04;;;;;;;29.03;13.03;;;;;;;-145.69;100.00;52440.44;5075488;28;20199;-82
2023/04/08 04:32:31;;;;;;;28.70;13.83;;;;;;;-145.69;100.00;52392.91;5074858;28;20293;-81
2023/04/08 04:34:59;;;;;;;32.13;15.37;;;;;;;-145.69;100.00;52377.06;5074355;28;20712;-81
2023/04/08 04:37:26;;;;;;;32.37;14.20;;;;;;;-145.69;100.00;52422.59;5077003;28;20237;-83
2023/04/08 04:39:52;;;;;;;38.33;15.30;;;;;;;-145.69;100.00;52394.88;5076256;28;20244;-81
2023/04/08 04:42:19;;;;;;;33.03;14.73;;;;;;;-145.69;100.00;52440.44;5076234;28;20198;-82
2023/04/08 04:44:46;;;;;;;31.87;14.40;;;;;;;-145.69;100.00;52408.75;5073986;28;20306;-82
2023/04/08 04:47:15;;;;;;;30.67;13.57;;;;;;;-145.69;100.00;52416.66;5075635;28;20195;-83
2023/04/08 04:49:44;;;;;;;23.97;12.10;;;;;;;-145.69;100.00;52432.50;5078159;28;20289;-83
2023/04/08 04:52:12;;;;;;;25.83;13.07;;;;;;;-145.69;100.00;52430.53;5079240;28;20202;-83
2023/04/08 04:54:39;;;;;;;32.13;15.77;;;;;;;-145.69;100.00;52416.66;5080037;28;20231;-83
2023/04/08 04:57:05;;;;;;;35.17;16.23;;;;;;;-145.69;100.00;52412.69;5080914;28;20224;-84
2023/04/08 04:59:32;;;;;;;34.73;16.17;;;;;;;-145.69;100.00;52404.78;5081261;28;20202;-83
2023/04/08 05:01:58;;;;;;;33.60;16.33;;;;;;;-145.69;100.00;52396.84;5079738;28;20637;-83
2023/04/08 05:04:26;;;;;;;40.43;17.57;;;;;;;-145.69;100.00;52446.38;5078964;28;20229;-83
2023/04/08 05:06:53;;;;;;;38.13;16.57;;;;;;;-145.69;100.00;52404.78;5079797;28;20210;-82
2023/04/08 05:09:21;;;;;;;39.20;16.30;;;;;;;-145.69;100.00;52468.16;5076541;28;20203;-82
2023/04/08 05:11:47;;;;;;;35.63;14.73;;;;;;;-145.69;100.00;52456.28;5075464;28;20225;-82
2023/04/08 05:14:14;;;;;;;37.50;15.77;;;;;;;-145.69;100.00;52428.53;5075368;28;20226;-82
2023/04/08 05:16:40;;;;;;;43.07;16.77;;;;;;;-145.69;100.00;52454.28;5077068;28;20206;-82
2023/04/08 05:19:07;;;;;;;26.17;12.83;;;;;;;-145.69;100.00;52420.63;5076287;28;20199;-82
2023/04/08 05:21:36;;;;;;;21.27;11.60;;;;;;;-145.69;100.00;52432.50;5076713;28;20215;-81
2023/04/08 05:24:02;;;;;;;27.60;12.73;;;;;;;-145.69;100.00;52422.59;5074566;28;20199;-81
2023/04/08 05:26:31;;;;;;;26.63;13.03;;;;;;;-145.69;100.00;52404.78;5073938;28;20199;-82
2023/04/08 05:28:58;;;;;;;24.10;12.10;;;;;;;-145.69;100.00;52434.47;5075166;28;20215;-82
2023/04/08 05:31:29;;;;;;;25.50;12.47;;;;;;;-145.69;100.00;52412.69;5075609;28;20205;-83
2023/04/08 05:33:58;;;;;;;33.03;15.27;;;;;;;-145.69;100.00;52414.69;5074472;28;20748;-82
2023/04/08 05:36:25;;;;;;;36.33;14.97;;;;;;;-145.69;100.00;52394.88;5074891;28;20684;-82
2023/04/08 05:38:51;;;;;;;27.07;12.77;;;;;;;-145.69;100.00;52446.38;5075357;28;20653;-81
2023/04/08 05:41:18;;;;;;;26.47;12.07;;;;;;;-145.69;100.00;52412.69;5078104;28;20207;-82
2023/04/08 05:43:46;;;;;;;24.70;11.90;;;;;;;-145.69;100.00;52448.34;5074793;28;20227;-82
2023/04/08 05:46:12;;;;;;;26.93;12.67;;;;;;;-145.69;100.00;52410.72;5079019;28;20194;-83
2023/04/08 05:48:39;;;;;;;24.80;11.67;;;;;;;-145.69;100.00;52432.50;5079929;28;20732;-82
2023/04/08 05:51:05;;;;;;;27.40;12.33;;;;;;;-145.69;100.00;52400.81;5082005;28;20226;-83
2023/04/08 05:53:33;;;;;;;22.87;12.17;;;;;;;-145.69;100.00;52434.47;5077646;28;20203;-82
2023/04/08 05:56:00;;;;;;;21.20;10.60;;;;;;;-145.69;100.00;52428.53;5079200;28;20285;-82
2023/04/08 05:58:32;;;;;;;26.43;11.83;;;;;;;-145.69;100.00;52412.69;5080690;28;20199;-82
2023/04/08 06:00:59;;;;;;;25.83;10.50;;;;;;;-145.69;100.00;52452.31;5076998;28;20689;-80
2023/04/08 06:03:27;;;;;;;18.80;9.83;;;;;;;-145.69;100.00;52416.66;5076370;28;20191;-81
2023/04/08 06:05:54;;;;;;;17.80;9.07;;;;;;;-145.69;100.00;52390.91;5075367;28;20635;-81
2023/04/08 06:08:21;;;;;;;19.83;9.13;;;;;;;-145.69;100.00;52420.63;5075665;28;20203;-80
2023/04/08 06:10:51;;;;;;;16.37;8.60;;;;;;;-145.69;100.00;52418.63;5075522;28;20206;-80
2023/04/08 06:13:19;;;;;;;17.13;8.83;;;;;;;-145.69;100.00;52426.56;5075743;28;20534;-80
2023/04/08 06:15:45;;;;;;;11.63;6.83;;;;;;;-145.69;100.00;52428.53;5075580;28;20322;-80
2023/04/08 06:18:13;;;;;;;11.17;6.33;;;;;;;-145.69;100.00;52424.59;5075320;28;20199;-80
2023/04/08 06:20:39;;;;;;;13.33;6.40;;;;;;;-145.69;100.00;52422.59;5075456;28;20240;-81
2023/04/08 06:23:06;;;;;;;14.10;6.73;;;;;;;-145.69;100.00;52432.50;5075366;28;20195;-80
2023/04/08 06:25:32;;;;;;;11.87;6.60;;;;;;;-145.69;100.00;52390.91;5075216;28;20285;-80
2023/04/08 06:27:59;;;;;;;10.53;5.93;;;;;;;-145.69;100.00;52408.75;5075309;28;20203;-81
2023/04/08 06:30:25;;;;;;;12.97;6.57;;;;;;;-145.69;100.00;52428.53;5075151;28;20199;-80
2023/04/08 06:32:52;;;;;;;10.37;6.30;;;;;;;-145.69;100.00;52426.56;5075015;28;20210;-81
2023/04/08 06:35:20;;;;;;;10.20;6.13;;;;;;;-145.69;100.00;52406.75;5075323;28;20253;-80
2023/04/08 06:37:46;;;;;;;12.57;7.00;;;;;;;-145.69;100.00;52422.59;5074745;28;20199;-80
2023/04/08 06:40:12;;;;;;;14.47;6.87;;;;;;;-145.69;100.00;52390.91;5075179;28;20194;-80
2023/04/08 06:42:41;;;;;;;12.10;6.07;;;;;;;-145.69;100.00;52400.81;5074575;28;20712;-80
2023/04/08 06:45:09;;;;;;;11.67;6.40;;;;;;;-145.69;100.00;52420.63;5074788;28;20557;-80
2023/04/08 06:47:36;;;;;;;12.60;6.60;;;;;;;-145.69;100.00;52388.94;5074879;28;20199;-80
2023/04/08 06:50:02;;;;;;;11.23;6.30;;;;;;;-145.69;100.00;52396.84;5075063;28;20202;-81
2023/04/08 06:52:30;;;;;;;10.33;6.00;;;;;;;-145.69;100.00;52414.69;5074618;28;20199;-80
2023/04/08 06:54:56;;;;;;;10.30;5.77;;;;;;;-145.69;100.00;52388.94;5074404;28;20223;-81
2023/04/08 06:57:23;;;;;;;11.20;5.90;;;;;;;-145.69;100.00;52383.00;5074808;28;20249;-79
2023/04/08 06:59:49;;;;;;;10.30;5.67;;;;;;;-145.69;100.00;52408.75;5074581;28;20194;-80
2023/04/08 07:02:16;;;;;;;11.77;5.80;;;;;;;-145.69;100.00;52369.13;5074695;28;20202;-81
2023/04/08 07:04:43;;;;;;;12.33;5.33;;;;;;;-145.69;100.00;52400.81;5074292;28;20233;-81
2023/04/08 07:07:09;;;;;;;9.93;6.17;;;;;;;-145.69;100.00;52420.63;5074377;28;20203;-80
2023/04/08 07:09:37;;;;;;;11.33;6.13;;;;;;;-145.69;100.00;52428.53;5074651;28;20210;-81
2023/04/08 07:12:04;;;;;;;13.70;6.33;;;;;;;-145.69;100.00;52432.50;5074297;28;20199;-81
2023/04/08 07:14:30;;;;;;;12.53;6.53;;;;;;;-145.69;100.00;52396.84;5074516;28;20679;-81
2023/04/08 07:16:57;;;;;;;14.90;6.70;;;;;;;-145.69;100.00;52440.44;5074722;28;20202;-81
2023/04/08 07:19:24;;;;;;;12.30;6.53;;;;;;;-145.69;100.00;52398.84;5074536;28;20205;-82
2023/04/08 07:21:51;;;;;;;13.27;7.33;;;;;;;-145.69;100.00;52428.53;5074015;28;20191;-81
2023/04/08 07:24:17;;;;;;;13.10;6.77;;;;;;;-145.69;100.00;52448.34;5074828;28;20197;-82
2023/04/08 07:26:45;;;;;;;13.43;7.27;;;;;;;-145.69;100.00;52408.75;5074540;28;20666;-80
2023/04/08 07:29:12;;;;;;;12.07;6.47;;;;;;;-145.69;100.00;52396.84;5076529;28;20207;-80
2023/04/08 07:31:38;;;;;;;10.07;6.03;;;;;;;-145.69;100.00;52408.75;5075559;28;20205;-82
2023/04/08 07:34:04;;;;;;;11.00;6.13;;;;;;;-145.69;100.00;52424.59;5074486;28;20203;-81
2023/04/08 07:36:31;;;;;;;11.53;5.50;;;;;;;-145.69;100.00;52388.94;5075081;28;20201;-80
2023/04/08 07:38:57;;;;;;;11.70;6.30;;;;;;;-145.69;100.00;52414.69;5075305;28;20206;-81
2023/04/08 07:41:24;;;;;;;11.30;5.97;;;;;;;-145.69;100.00;52454.28;5074563;28;20553;-82
2023/04/08 07:43:52;;;;;;;12.27;6.43;;;;;;;-145.69;100.00;52404.78;5075201;28;20335;-81
2023/04/08 07:46:19;;;;;;;10.73;5.80;;;;;;;-145.69;100.00;52396.84;5069109;28;20203;-81
2023/04/08 07:48:46;;;;;;;11.57;6.23;;;;;;;-145.69;100.00;52410.72;5054353;28;20222;-80
2023/04/08 07:51:13;;;;;;;10.43;6.03;;;;;;;-145.69;100.00;52416.66;5056438;28;20200;-80
2023/04/08 07:53:40;;;;;;;9.70;5.83;;;;;;;-145.69;100.00;52428.53;5054526;28;20214;-80
2023/04/08 07:56:11;;;;;;;10.83;6.17;;;;;;;-145.69;100.00;52406.75;5066360;28;20229;-81
2023/04/08 07:58:39;;;;;;;12.00;5.97;;;;;;;-145.69;100.00;52412.69;5075162;28;20199;-82
2023/04/08 08:01:15;;;;;;;10.27;5.37;;;;;;;-145.69;100.00;52400.81;5075554;28;20195;-83
2023/04/08 08:03:41;;;;;;;9.13;4.90;;;;;;;-145.69;100.00;52448.34;5076560;28;20545;-82
2023/04/08 08:06:07;;;;;;;9.23;5.27;;;;;;;-145.69;100.00;52408.75;5074831;28;20561;-80
2023/04/08 08:08:35;;;;;;;11.27;5.97;;;;;;;-145.69;100.00;52404.78;5073771;28;20198;-80
2023/04/08 08:11:01;;;;;;;10.00;5.67;;;;;;;-145.69;100.00;52428.53;5073170;28;20210;-81
2023/04/08 08:13:28;;;;;;;10.47;5.77;;;;;;;-145.69;100.00;52367.16;5073352;28;20202;-81
2023/04/08 08:15:54;;;;;;;9.83;6.10;;;;;;;-145.69;100.00;52428.53;5073132;28;20582;-80
2023/04/08 08:18:22;;;;;;;9.43;5.90;;;;;;;-145.69;100.00;52458.25;5073983;28;20230;-81
2023/04/08 08:20:49;;;;;;;12.37;6.37;;;;;;;-145.69;100.00;52394.88;5073907;28;20221;-82
2023/04/08 08:23:15;;;;;;;12.77;6.90;;;;;;;-145.69;100.00;52412.69;5075625;28;20206;-83
2023/04/08 08:25:42;;;;;;;12.80;7.23;;;;;;;-145.69;100.00;52392.91;5074869;28;20201;-84
2023/04/08 08:28:08;;;;;;;12.87;6.60;;;;;;;-145.69;100.00;52432.50;5073965;28;20198;-82
2023/04/08 08:30:35;;;;;;;12.90;7.27;;;;;;;-145.69;100.00;52412.69;5073457;28;20203;-81
2023/04/08 08:33:01;;;;;;;13.63;6.97;;;;;;;-145.69;100.00;52394.88;5073254;28;20294;-81
2023/04/08 08:35:29;;;;;;;11.17;6.40;;;;;;;-145.69;100.00;52462.22;5073079;28;20226;-83
2023/04/08 08:37:56;;;;;;;10.57;5.83;;;;;;;-145.69;100.00;52400.81;5073698;28;20199;-81
2023/04/08 08:40:22;;;;;;;11.10;6.70;;;;;;;-145.69;100.00;52418.63;5073294;28;20195;-82
2023/04/08 08:42:51;;;;;;;10.70;6.23;;;;;;;-145.69;100.00;52400.81;5073276;28;20227;-82
2023/04/08 08:45:18;;;;;;;10.63;5.83;;;;;;;-145.69;100.00;52408.75;5073505;28;20242;-81
2023/04/08 08:47:45;;;;;;;11.00;6.37;;;;;;;-145.69;100.00;52414.69;5073086;28;20206;-81
2023/04/08 08:50:11;;;;;;;10.20;5.83;;;;;;;-145.69;100.00;52408.75;5073182;28;20197;-81
2023/04/08 08:52:39;;;;;;;11.50;6.70;;;;;;;-145.69;100.00;52432.50;5073235;28;20199;-80
2023/04/08 08:55:07;;;;;;;11.13;6.27;;;;;;;-145.69;100.00;52440.44;5073009;28;20554;-81
2023/04/08 08:57:33;;;;;;;12.70;6.40;;;;;;;-145.69;100.00;52416.66;5072695;28;20202;-80
2023/04/08 08:59:59;;;;;;;15.27;7.10;;;;;;;-145.69;100.00;52400.81;5072511;28;20195;-80
2023/04/08 09:02:28;;;;;;;12.47;6.87;;;;;;;-145.69;100.00;52408.75;5073538;28;20195;-80
2023/04/08 09:05:00;;;;;;;11.13;6.63;;;;;;;-145.69;100.00;52428.53;5073640;28;20228;-82
2023/04/08 09:07:27;;;;;;;16.77;6.87;;;;;;;-145.69;100.00;52392.91;5075321;28;20209;-81
2023/04/08 09:09:56;;;;;;;10.63;6.43;;;;;;;-145.69;100.00;52398.84;5074560;28;20214;-81
2023/04/08 09:12:23;;;;;;;9.70;5.90;;;;;;;-145.69;100.00;52420.63;5075126;28;20202;-82
2023/04/08 09:15:03;;;;;;;11.10;6.70;;;;;;;-145.69;100.00;52424.59;5076823;28;20234;-82
2023/04/08 09:17:33;;;;;;;9.53;5.60;;;;;;;-145.69;100.00;52381.00;5075878;28;20195;-82
2023/04/08 09:20:10;;;;;;;9.07;5.23;;;;;;;-145.69;100.00;52402.78;5074532;28;20237;-82
2023/04/08 09:22:55;;;;;;;9.77;5.83;;;;;;;-145.69;100.00;52412.69;5074706;28;20280;-82
2023/04/08 09:25:28;;;;;;;8.70;5.43;;;;;;;-145.69;100.00;52386.97;5077509;28;20256;-82
2023/04/08 09:27:55;;;;;;;10.17;6.67;;;;;;;-145.69;100.00;52394.88;5078600;28;20289;-82
2023/04/08 09:30:23;;;;;;;11.03;6.27;;;;;;;-145.69;100.00;52410.72;5077243;28;20206;-81
2023/04/08 09:32:50;;;;;;;10.57;5.83;;;;;;;-145.69;100.00;52406.75;5077452;28;20199;-80
2023/04/08 09:35:18;;;;;;;11.53;6.23;;;;;;;-145.69;100.00;52416.66;5078325;28;20589;-82
2023/04/08 09:37:45;;;;;;;10.13;5.77;;;;;;;-145.69;100.00;52432.50;5077736;28;20210;-82
2023/04/08 09:40:14;;;;;;;8.87;6.27;;;;;;;-145.69;100.00;52420.63;5078576;28;20198;-80
2023/04/08 09:42:47;;;;;;;12.60;7.50;;;;;;;-145.69;100.00;52377.06;5077366;28;20238;-80
2023/04/08 09:45:16;;;;;;;11.70;6.57;;;;;;;-145.69;100.00;52448.34;5077260;28;20203;-80
2023/04/08 09:47:52;;;;;;;10.80;6.93;;;;;;;-145.69;100.00;52428.53;5076883;28;20206;-82
2023/04/08 09:50:23;;;;;;;11.73;6.80;;;;;;;-145.69;100.00;52392.91;5076356;28;20213;-81
2023/04/08 09:52:56;;;;;;;12.93;7.33;;;;;;;-145.69;100.00;52410.72;5075949;28;20216;-82
2023/04/08 09:55:26;;;;;;;13.60;7.80;;;;;;;-145.69;100.00;52406.75;5069302;28;20224;-81
2023/04/08 09:57:58;;;;;;;18.30;7.67;;;;;;;-145.69;100.00;52392.91;5055900;28;20199;-80
2023/04/08 10:00:29;;;;;;;10.90;6.57;;;;;;;-145.69;100.00;52404.78;5056220;28;20203;-81
2023/04/08 10:03:02;;;;;;;13.93;7.03;;;;;;;-145.69;100.00;52404.78;5057929;28;20235;-81
2023/04/08 10:05:31;;;;;;;12.30;6.50;;;;;;;-145.69;100.00;52416.66;5075799;28;20666;-81
2023/04/08 10:07:57;;;;;;;10.57;6.20;;;;;;;-145.69;100.00;52404.78;5075811;28;20209;-81
2023/04/08 10:10:25;;;;;;;12.30;7.27;;;;;;;-145.69;100.00;52377.06;5074954;28;20209;-81
2023/04/08 10:12:51;;;;;;;11.87;7.40;;;;;;;-145.69;100.00;52412.69;5075446;28;20545;-81
2023/04/08 10:15:27;;;;;;;8.60;6.17;;;;;;;-145.69;100.00;52373.09;5075610;28;20233;-81
2023/04/08 10:18:36;;;;;;;7.20;4.77;;;;;;;-145.69;100.00;52428.53;5075229;28;20202;-81
2023/04/08 10:21:03;;;;;;;10.93;5.70;;;;;;;-145.69;100.00;52400.81;5075243;28;20257;-81
2023/04/08 10:23:53;;;;;;;8.77;5.17;;;;;;;-145.69;100.00;52353.28;5075783;28;20561;-81
2023/04/08 10:26:35;;;;;;;11.37;5.73;;;;;;;-145.69;100.00;52400.81;5075457;28;20237;-81
2023/04/08 10:29:30;;;;;;;8.63;5.37;;;;;;;-145.69;100.00;52398.84;5075206;28;20198;-81
2023/04/08 10:31:58;;;;;;;9.00;5.60;;;;;;;-145.69;100.00;52381.00;5075541;28;20285;-81
2023/04/08 10:34:27;;;;;;;12.23;6.20;;;;;;;-145.69;100.00;52396.84;5074311;28;20245;-81
2023/04/08 10:37:00;;;;;;;10.23;6.20;;;;;;;-145.69;100.00;52402.78;5074916;28;20249;-81
2023/04/08 10:39:27;;;;;;;10.80;6.50;;;;;;;-145.69;100.00;52388.94;5075128;28;20202;-81
2023/04/08 10:41:54;;;;;;;11.23;6.67;;;;;;;-145.69;100.00;52396.84;5074518;28;20211;-81
2023/04/08 10:44:22;;;;;;;10.50;6.73;;;;;;;-145.69;100.00;52377.06;5074813;28;20589;-81
2023/04/08 10:46:50;;;;;;;11.27;6.80;;;;;;;-145.69;100.00;52400.81;5074900;28;20649;-81
2023/04/08 10:49:19;;;;;;;22.43;10.97;;;;;;;-145.69;100.00;52392.91;5074536;28;20203;-81
2023/04/08 10:51:48;;;;;;;11.53;7.17;;;;;;;-145.69;100.00;52396.84;5075072;28;20602;-81
2023/04/08 10:54:16;;;;;;;12.77;7.87;;;;;;;-145.69;100.00;52359.22;5074837;28;20675;-81
2023/04/08 10:56:47;;;;;;;11.03;7.03;;;;;;;-145.69;100.00;52384.97;5074835;28;20223;-81
2023/04/08 10:59:16;;;;;;;11.20;7.50;;;;;;;-145.69;100.00;52383.00;5074558;28;20286;-81
2023/04/08 11:01:45;;;;;;;13.40;7.67;;;;;;;-145.69;100.00;52386.97;5074100;28;20203;-81
2023/04/08 11:04:13;;;;;;;13.03;7.53;;;;;;;-145.69;100.00;52392.91;5074378;28;20191;-80
2023/04/08 11:06:45;;;;;;;13.83;8.43;;;;;;;-145.69;100.00;52428.53;5074459;28;20207;-80